createdAt,value
2019-02-06T09:14:46.434Z,-1.85
2019-02-06T09:17:15.030Z,-2.01
2019-02-06T09:19:43.684Z,-2.08
2019-02-06T09:22:12.274Z,-2.10
2019-02-06T09:24:41.006Z,-2.01
2019-02-06T09:27:10.691Z,-2.26
2019-02-06T09:29:39.660Z,-1.99
2019-02-06T09:32:09.076Z,-2.23
2019-02-06T09:34:37.739Z,-2.45
2019-02-06T09:37:07.229Z,-2.21
2019-02-06T09:39:35.859Z,-2.07
2019-02-06T09:42:04.451Z,-2.00
2019-02-06T09:44:33.118Z,-2.41
2019-02-06T09:47:01.706Z,-1.69
2019-02-06T09:49:30.307Z,-1.52
2019-02-06T09:51:58.909Z,-1.39
2019-02-06T09:54:27.528Z,-1.43
2019-02-06T09:56:56.125Z,-1.09
2019-02-06T09:59:24.717Z,-0.92
2019-02-06T10:01:53.791Z,-0.90
2019-02-06T10:04:22.384Z,-1.02
2019-02-06T10:06:50.976Z,-0.96
2019-02-06T10:09:23.095Z,-0.92
2019-02-06T10:11:49.930Z,-0.78
2019-02-06T10:14:18.527Z,-0.84
2019-02-06T10:16:48.731Z,-0.83
2019-02-06T10:19:17.381Z,-0.83
2019-02-06T10:21:45.999Z,-0.80
2019-02-06T10:24:14.587Z,-0.57
2019-02-06T10:26:43.178Z,-0.56
2019-02-06T10:29:11.771Z,-0.50
2019-02-06T10:31:40.363Z,-0.44
2019-02-06T10:34:09.867Z,-0.75
2019-02-06T10:36:38.519Z,-0.48
2019-02-06T10:39:08.451Z,-0.65
2019-02-06T10:41:37.047Z,-0.53
2019-02-06T10:44:05.703Z,-0.24
2019-02-06T10:46:34.345Z,-0.62
2019-02-06T10:49:03.318Z,-0.83
2019-02-06T10:51:31.916Z,-0.63
2019-02-06T10:54:00.496Z,-0.90
2019-02-06T10:56:29.090Z,-1.05
2019-02-06T10:58:57.682Z,-0.84
2019-02-06T11:01:26.277Z,-0.76
2019-02-06T11:03:54.870Z,-0.66
2019-02-06T11:06:23.702Z,-0.60
2019-02-06T11:08:52.340Z,-0.80
2019-02-06T11:11:20.962Z,-0.62
2019-02-06T11:13:49.889Z,-0.57
2019-02-06T11:16:18.661Z,-0.45
2019-02-06T11:18:47.278Z,-0.59
2019-02-06T11:21:15.872Z,-0.53
2019-02-06T11:23:44.478Z,-0.48
2019-02-06T11:26:13.122Z,-0.29
2019-02-06T11:28:41.715Z,-0.36
2019-02-06T11:31:10.620Z,-0.27
2019-02-06T11:33:39.210Z,-0.24
2019-02-06T11:36:08.102Z,-0.14
2019-02-06T11:38:36.868Z,0.04
2019-02-06T11:41:05.462Z,0.14
2019-02-06T11:43:34.053Z,0.46
2019-02-06T11:46:02.688Z,0.42
2019-02-06T11:48:31.321Z,-0.01
2019-02-06T11:51:00.003Z,-0.07
2019-02-06T11:53:29.075Z,-0.06
2019-02-06T11:55:57.666Z,0.30
2019-02-06T11:58:27.814Z,0.64
2019-02-06T12:01:04.167Z,0.68
2019-02-06T12:03:32.751Z,0.17
2019-02-06T12:06:01.339Z,0.23
2019-02-06T12:08:31.249Z,0.23
2019-02-06T12:11:00.026Z,-0.01
2019-02-06T12:13:28.652Z,0.21
2019-02-06T12:15:57.299Z,0.23
2019-02-06T12:18:25.976Z,0.45
2019-02-06T12:20:54.564Z,0.43
2019-02-06T12:23:31.952Z,0.20
2019-02-06T12:25:53.473Z,0.39
2019-02-06T12:28:22.061Z,0.62
2019-02-06T12:30:50.656Z,0.70
2019-02-06T12:33:19.244Z,0.68
2019-02-06T12:35:47.840Z,0.75
2019-02-06T12:38:16.427Z,1.08
2019-02-06T12:40:45.286Z,0.80
2019-02-06T12:43:13.871Z,0.59
2019-02-06T12:45:42.462Z,0.62
2019-02-06T12:48:11.392Z,0.85
2019-02-06T12:50:39.980Z,1.00
2019-02-06T12:53:09.128Z,1.25
2019-02-06T12:55:41.489Z,0.85
2019-02-06T12:58:11.255Z,0.71
2019-02-06T13:00:42.043Z,0.92
2019-02-06T13:03:10.945Z,0.96
2019-02-06T13:05:39.597Z,1.03
2019-02-06T13:08:08.645Z,0.93
2019-02-06T13:10:37.234Z,0.97
2019-02-06T13:13:05.831Z,1.00
2019-02-06T13:15:34.932Z,1.22
2019-02-06T13:18:03.560Z,1.18
2019-02-06T13:20:36.580Z,1.41
2019-02-06T13:23:06.072Z,1.51
2019-02-06T13:25:34.655Z,1.55
2019-02-06T13:28:03.246Z,1.65
2019-02-06T13:30:34.730Z,1.73
2019-02-06T13:33:03.321Z,1.77
2019-02-06T13:35:31.951Z,1.53
2019-02-06T13:38:00.537Z,1.73
2019-02-06T13:40:29.626Z,1.61
2019-02-06T13:42:58.713Z,1.87
2019-02-06T13:45:32.484Z,2.92
2019-02-06T13:48:01.059Z,3.85
2019-02-06T13:50:29.752Z,3.21
2019-02-06T13:52:58.343Z,3.02
2019-02-06T13:55:27.015Z,3.68
2019-02-06T13:57:55.614Z,3.36
2019-02-06T14:00:27.138Z,3.81
2019-02-06T14:02:55.726Z,4.02
2019-02-06T14:05:27.042Z,3.88
2019-02-06T14:07:57.837Z,4.09
2019-02-06T14:10:28.420Z,4.30
2019-02-06T14:12:57.010Z,3.82
2019-02-06T14:15:32.071Z,3.65
2019-02-06T14:18:01.240Z,3.75
2019-02-06T14:20:29.949Z,3.99
2019-02-06T14:23:01.780Z,4.22
2019-02-06T14:25:50.114Z,4.13
2019-02-06T14:28:44.772Z,4.44
2019-02-06T14:31:19.997Z,4.56
2019-02-06T14:33:57.864Z,5.03
2019-02-06T14:36:35.281Z,4.60
2019-02-06T14:39:15.964Z,4.90
2019-02-06T14:42:07.901Z,5.49
2019-02-06T14:44:45.199Z,4.55
2019-02-06T14:47:19.395Z,5.31
2019-02-06T14:49:51.275Z,5.72
2019-02-06T14:52:38.261Z,5.00
2019-02-06T14:55:27.813Z,5.85
2019-02-06T14:57:59.567Z,5.52
2019-02-06T15:00:59.284Z,5.75
2019-02-06T15:03:27.517Z,5.43
2019-02-06T15:06:02.463Z,4.68
2019-02-06T15:08:43.235Z,5.73
2019-02-06T15:11:19.658Z,5.74
2019-02-06T15:14:17.972Z,5.53
2019-02-06T15:17:15.207Z,5.77
2019-02-06T15:19:58.552Z,6.30
2019-02-06T15:22:47.033Z,7.19
2019-02-06T15:25:19.190Z,7.07
2019-02-06T15:28:02.883Z,7.37
2019-02-06T15:30:54.100Z,6.92
2019-02-06T15:33:40.726Z,7.22
2019-02-06T15:36:35.779Z,7.45
2019-02-06T15:39:28.640Z,7.31
2019-02-06T15:42:18.731Z,7.45
2019-02-06T15:44:50.832Z,7.17
2019-02-06T15:47:40.822Z,7.42
2019-02-06T15:50:29.903Z,7.16
2019-02-06T15:53:01.615Z,7.23
2019-02-06T15:55:59.111Z,7.73
2019-02-06T15:58:36.799Z,7.30
2019-02-06T16:01:57.201Z,7.65
2019-02-06T16:08:28.048Z,7.33
2019-02-06T16:11:06.255Z,7.41
2019-02-06T16:17:38.735Z,6.15
2019-02-06T16:20:32.558Z,5.36
2019-02-06T16:23:25.065Z,5.13
2019-02-06T16:32:34.866Z,4.67
2019-02-06T16:36:17.546Z,4.32
2019-02-06T16:39:05.131Z,4.07
2019-02-06T16:41:56.703Z,3.71
2019-02-06T16:44:51.082Z,1.68
2019-02-06T16:47:32.156Z,2.03
2019-02-06T16:50:06.738Z,1.26
2019-02-06T16:53:01.232Z,0.85
2019-02-06T16:55:38.944Z,0.91
2019-02-06T16:58:17.991Z,0.70
2019-02-06T17:00:58.635Z,0.61
2019-02-06T17:03:51.376Z,0.46
2019-02-06T17:06:38.023Z,0.51
2019-02-06T17:09:16.448Z,0.80
2019-02-06T17:12:10.320Z,0.33
2019-02-06T17:14:51.106Z,0.28
2019-02-06T17:17:28.638Z,0.30
2019-02-06T17:20:26.371Z,-0.02
2019-02-06T17:23:06.734Z,0.03
2019-02-06T17:25:42.082Z,-0.06
2019-02-06T17:28:19.924Z,-0.13
2019-02-06T17:31:07.993Z,-0.22
2019-02-06T17:33:58.186Z,-0.27
2019-02-06T17:36:44.911Z,-0.27
2019-02-06T17:39:25.728Z,-0.35
2019-02-06T17:42:29.125Z,-0.39
2019-02-06T17:45:17.312Z,-0.54
2019-02-06T17:48:14.690Z,-0.57
2019-02-06T17:51:04.709Z,-0.57
2019-02-06T17:53:48.594Z,-0.64
2019-02-06T17:56:17.214Z,-0.56
2019-02-06T17:58:45.804Z,-0.60
2019-02-06T18:01:17.614Z,-0.58
2019-02-06T18:03:47.542Z,-0.56
2019-02-06T18:06:17.048Z,-0.57
2019-02-06T18:08:56.120Z,-0.59
2019-02-06T18:11:15.967Z,-0.58
2019-02-06T18:13:44.592Z,-0.68
2019-02-06T18:16:21.090Z,-0.73
2019-02-06T18:18:43.653Z,-0.78
2019-02-06T18:21:12.504Z,-0.74
2019-02-06T18:23:41.100Z,-0.71
2019-02-06T18:26:10.668Z,-0.58
2019-02-06T18:28:39.557Z,-0.43
2019-02-06T18:31:09.522Z,-0.65
2019-02-06T18:33:38.120Z,-0.85
2019-02-06T18:36:07.048Z,-0.83
2019-02-06T18:38:46.319Z,-0.88
2019-02-06T18:41:07.283Z,-0.80
2019-02-06T18:43:35.876Z,-0.82
2019-02-06T18:46:04.466Z,-1.00
2019-02-06T18:48:33.860Z,-0.76
2019-02-06T18:51:02.524Z,-1.07
2019-02-06T18:53:31.122Z,-1.00
2019-02-06T18:55:59.888Z,-0.75
2019-02-06T18:58:28.562Z,-1.06
2019-02-06T19:00:57.245Z,-1.01
2019-02-06T19:03:29.031Z,-1.02
2019-02-06T19:05:57.861Z,-0.89
2019-02-06T19:08:26.459Z,-0.93
2019-02-06T19:10:55.114Z,-0.98
2019-02-06T19:13:23.707Z,-0.93
2019-02-06T19:15:56.481Z,-1.02
2019-02-06T19:18:23.226Z,-0.98
2019-02-06T19:20:51.945Z,-0.85
2019-02-06T19:23:20.578Z,-0.91
2019-02-06T19:25:49.178Z,-0.98
2019-02-06T19:28:18.158Z,-1.41
2019-02-06T19:30:46.954Z,-0.90
2019-02-06T19:33:17.286Z,-1.26
2019-02-06T19:35:45.984Z,-1.39
2019-02-06T19:38:14.582Z,-1.34
2019-02-06T19:40:43.243Z,-1.34
2019-02-06T19:43:11.923Z,-1.21
2019-02-06T19:45:40.920Z,-1.15
2019-02-06T19:48:16.316Z,-1.14
2019-02-06T19:50:45.960Z,-1.38
2019-02-06T19:53:14.634Z,-1.36
2019-02-06T19:55:43.310Z,-1.40
2019-02-06T19:58:12.388Z,-1.31
2019-02-06T20:00:40.986Z,-1.29
2019-02-06T20:03:10.638Z,-1.32
2019-02-06T20:05:39.234Z,-1.34
2019-02-06T20:08:08.381Z,-1.36
2019-02-06T20:10:39.952Z,-1.34
2019-02-06T20:13:13.844Z,0.52
2019-02-06T20:15:40.009Z,-0.74
2019-02-06T20:18:09.526Z,-0.88
2019-02-06T20:20:38.162Z,-0.96
2019-02-06T20:23:07.725Z,-0.89
2019-02-06T20:25:36.452Z,-0.83
2019-02-06T20:28:05.078Z,-0.63
2019-02-06T20:30:33.778Z,-0.71
2019-02-06T20:33:02.551Z,-0.98
2019-02-06T20:35:31.351Z,-1.15
2019-02-06T20:38:00.019Z,-1.67
2019-02-06T20:40:34.227Z,-1.27
2019-02-06T20:43:02.906Z,-1.14
2019-02-06T20:45:31.915Z,-1.00
2019-02-06T20:48:00.588Z,-1.08
2019-02-06T20:50:31.757Z,-1.07
2019-02-06T20:53:00.631Z,-0.96
2019-02-06T20:55:29.333Z,-0.98
2019-02-06T20:57:57.924Z,-1.01
2019-02-06T21:00:29.277Z,-0.98
2019-02-06T21:02:57.897Z,-1.05
2019-02-06T21:05:26.536Z,-1.26
2019-02-06T21:07:55.121Z,-1.21
2019-02-06T21:10:28.965Z,-1.31
2019-02-06T21:12:57.576Z,-1.33
2019-02-06T21:15:26.198Z,-1.22
2019-02-06T21:17:54.783Z,-1.23
2019-02-06T21:20:24.410Z,-1.41
2019-02-06T21:22:53.064Z,-1.39
2019-02-06T21:25:25.301Z,-1.33
2019-02-06T21:27:54.022Z,-1.23
2019-02-06T21:30:34.141Z,-1.24
2019-02-06T21:33:02.746Z,-1.32
2019-02-06T21:35:31.343Z,-1.29
2019-02-06T21:38:00.346Z,-1.30
2019-02-06T21:40:35.017Z,-1.27
2019-02-06T21:43:03.878Z,-1.32
2019-02-06T21:45:32.466Z,-1.30
2019-02-06T21:48:01.131Z,-1.14
2019-02-06T21:50:29.786Z,-1.32
2019-02-06T21:52:58.725Z,-1.40
2019-02-06T21:55:27.816Z,-1.29
2019-02-06T21:57:56.416Z,-1.32
2019-02-06T22:00:30.696Z,-1.24
2019-02-06T22:02:59.467Z,-1.31
2019-02-06T22:05:28.071Z,-1.23
2019-02-06T22:07:56.757Z,-1.15
2019-02-06T22:10:25.445Z,-1.13
2019-02-06T22:12:54.050Z,-1.24
2019-02-06T22:15:28.332Z,-1.28
2019-02-06T22:17:56.928Z,-1.24
2019-02-06T22:20:26.041Z,-1.07
2019-02-06T22:22:54.633Z,-1.48
2019-02-06T22:25:23.231Z,-1.51
2019-02-06T22:27:51.750Z,-1.43
2019-02-06T22:30:24.728Z,-1.37
2019-02-06T22:32:53.383Z,-1.42
2019-02-06T22:35:22.360Z,-1.20
2019-02-06T22:37:50.992Z,-1.33
2019-02-06T22:40:21.282Z,-1.24
2019-02-06T22:42:49.880Z,-1.17
2019-02-06T22:45:20.370Z,-1.02
2019-02-06T22:47:49.017Z,-1.03
2019-02-06T22:50:20.079Z,-1.21
2019-02-06T22:52:48.677Z,-0.97
2019-02-06T22:55:17.276Z,-0.97
2019-02-06T22:57:45.875Z,-1.53
2019-02-06T23:00:31.486Z,-1.64
2019-02-06T23:03:00.354Z,-1.31
2019-02-06T23:05:29.010Z,-1.28
2019-02-06T23:07:57.603Z,-1.53
2019-02-06T23:10:26.188Z,-1.35
2019-02-06T23:12:54.787Z,-1.34
2019-02-06T23:15:23.443Z,-1.30
2019-02-06T23:17:52.458Z,-1.31
2019-02-06T23:20:21.052Z,-1.37
2019-02-06T23:22:49.683Z,-1.81
2019-02-06T23:25:18.294Z,-1.86
2019-02-06T23:27:46.886Z,-1.57
2019-02-06T23:30:16.134Z,-1.58
2019-02-06T23:32:45.003Z,-1.54
2019-02-06T23:35:13.659Z,-1.27
2019-02-06T23:37:42.299Z,-1.43
2019-02-06T23:40:14.141Z,-1.71
2019-02-06T23:42:42.796Z,-2.04
2019-02-06T23:45:11.906Z,-2.46
2019-02-06T23:47:41.144Z,-2.13
2019-02-06T23:50:15.872Z,-2.09
2019-02-06T23:52:44.453Z,-2.22
2019-02-06T23:55:13.071Z,-2.02
2019-02-06T23:57:41.777Z,-1.87
